Time;durP1;ratioP1;P1;durP2;ratioP2;P2;SDS_P1;SDS_P2;PMS_P1;PMS_P2;Temp;Humidity;BMP_temperature;BMP_pressure;BME280_temperature;BME280_humidity;BME280_pressure;Samples;Min_cycle;Max_cycle;Signal;HPM_P1;HPM_P2
2023/10/23 00:01:23;;;;;;;;;;;22.80;55.40;;;;;;5094091;28;20011;-58
2023/10/23 00:03:50;;;;;;;;;;;22.70;55.40;;;;;;5093700;28;19927;-58
2023/10/23 00:06:18;;;;;;;;;;;22.70;55.40;;;;;;5093462;28;19935;-58
2023/10/23 00:08:45;;;;;;;;;;;22.80;55.50;;;;;;5093826;28;19923;-58
2023/10/23 00:11:20;;;;;;;;;;;22.70;55.40;;;;;;5093740;28;19931;-58
2023/10/23 00:13:47;;;;;;;;;;;22.70;55.40;;;;;;5093853;28;20018;-59
2023/10/23 00:16:14;;;;;;;;;;;22.70;55.40;;;;;;5093605;28;20020;-59
2023/10/23 00:18:41;;;;;;;;;;;22.80;55.50;;;;;;5093190;28;19930;-59
2023/10/23 00:21:08;;;;;;;;;;;22.80;55.30;;;;;;5093638;28;19931;-59
2023/10/23 00:23:35;;;;;;;;;;;22.80;55.30;;;;;;5093475;28;19928;-59
2023/10/23 00:26:02;;;;;;;;;;;22.80;55.30;;;;;;5096407;28;19960;-59
2023/10/23 00:28:29;;;;;;;;;;;22.80;55.30;;;;;;5097412;28;19924;-59
2023/10/23 00:30:56;;;;;;;;;;;22.80;55.30;;;;;;5097013;28;20388;-59
2023/10/23 00:33:24;;;;;;;;;;;22.70;55.20;;;;;;5097013;28;19924;-59
2023/10/23 00:35:51;;;;;;;;;;;22.80;55.30;;;;;;5097555;28;19932;-59
2023/10/23 00:38:18;;;;;;;;;;;22.70;55.30;;;;;;5097268;28;19934;-59
2023/10/23 00:40:45;;;;;;;;;;;22.70;55.20;;;;;;5096967;28;19967;-59
2023/10/23 00:43:13;;;;;;;;;;;22.70;55.20;;;;;;5097012;28;19924;-59
2023/10/23 00:45:45;;;;;;;;;;;22.70;55.20;;;;;;5096816;28;19931;-59
2023/10/23 00:48:12;;;;;;;;;;;22.70;55.20;;;;;;5095545;28;20396;-59
2023/10/23 00:50:39;;;;;;;;;;;22.80;55.30;;;;;;5096663;28;20015;-59
2023/10/23 00:53:06;;;;;;;;;;;22.70;55.20;;;;;;5096723;28;19924;-59
2023/10/23 00:55:33;;;;;;;;;;;22.70;55.20;;;;;;5096556;28;20023;-59
2023/10/23 00:58:00;;;;;;;;;;;22.70;55.30;;;;;;5096676;28;19963;-59
2023/10/23 01:00:27;;;;;;;;;;;22.70;55.30;;;;;;5096837;28;19973;-59
2023/10/23 01:02:54;;;;;;;;;;;22.70;55.30;;;;;;5096259;28;19977;-59
2023/10/23 01:05:22;;;;;;;;;;;22.70;55.30;;;;;;5096394;28;19924;-59
2023/10/23 01:07:49;;;;;;;;;;;22.70;55.30;;;;;;5094974;28;19924;-60
2023/10/23 01:10:16;;;;;;;;;;;22.70;55.30;;;;;;5096420;28;19924;-59
2023/10/23 01:12:43;;;;;;;;;;;22.70;55.30;;;;;;5096317;28;20384;-59
2023/10/23 01:15:10;;;;;;;;;;;22.70;55.40;;;;;;5095375;28;19924;-59
2023/10/23 01:17:37;;;;;;;;;;;22.70;55.40;;;;;;5096107;28;19931;-59
2023/10/23 01:20:05;;;;;;;;;;;22.70;55.50;;;;;;5096533;28;19930;-59
2023/10/23 01:22:32;;;;;;;;;;;22.70;55.50;;;;;;5096263;28;20014;-59
2023/10/23 01:24:59;;;;;;;;;;;22.60;55.40;;;;;;5096467;28;19924;-59
2023/10/23 01:27:26;;;;;;;;;;;22.70;55.60;;;;;;5096029;28;21325;-61
2023/10/23 01:29:53;;;;;;;;;;;22.70;55.50;;;;;;5096193;28;19928;-59
2023/10/23 01:32:20;;;;;;;;;;;22.60;55.50;;;;;;5096141;28;20023;-59
2023/10/23 01:34:47;;;;;;;;;;;22.70;55.70;;;;;;5095946;28;19982;-59
2023/10/23 01:37:14;;;;;;;;;;;22.70;55.50;;;;;;5094685;28;19954;-59
2023/10/23 01:39:41;;;;;;;;;;;22.70;55.50;;;;;;5095758;28;19953;-58
2023/10/23 01:42:08;;;;;;;;;;;22.60;55.40;;;;;;5095745;28;19928;-59
2023/10/23 01:44:35;;;;;;;;;;;22.60;55.40;;;;;;5096030;28;20356;-59
2023/10/23 01:47:02;;;;;;;;;;;22.70;55.40;;;;;;5095735;28;20373;-59
2023/10/23 01:49:29;;;;;;;;;;;22.70;55.30;;;;;;5095663;28;20036;-59
2023/10/23 01:51:56;;;;;;;;;;;22.70;55.30;;;;;;5094548;28;20027;-59
2023/10/23 01:54:23;;;;;;;;;;;22.70;55.30;;;;;;5095831;28;19924;-59
2023/10/23 01:56:50;;;;;;;;;;;22.70;55.30;;;;;;5095870;28;20358;-57
2023/10/23 01:59:17;;;;;;;;;;;22.70;55.30;;;;;;5094947;28;20010;-57
2023/10/23 02:01:44;;;;;;;;;;;22.70;55.30;;;;;;5095727;28;20022;-57
2023/10/23 02:04:11;;;;;;;;;;;22.60;55.20;;;;;;5095232;28;19932;-58
2023/10/23 02:06:38;;;;;;;;;;;22.70;55.30;;;;;;5095251;28;20014;-58
2023/10/23 02:09:05;;;;;;;;;;;22.60;55.20;;;;;;5095515;28;19924;-58
2023/10/23 02:11:32;;;;;;;;;;;22.60;55.20;;;;;;5095095;28;19977;-58
2023/10/23 02:13:59;;;;;;;;;;;22.60;55.20;;;;;;5094938;28;20269;-58
2023/10/23 02:16:26;;;;;;;;;;;22.60;55.20;;;;;;5095199;28;19960;-58
2023/10/23 02:18:53;;;;;;;;;;;22.60;55.20;;;;;;5095204;28;19924;-58
2023/10/23 02:21:20;;;;;;;;;;;22.70;55.30;;;;;;5094932;28;19924;-58
2023/10/23 02:23:47;;;;;;;;;;;22.60;55.20;;;;;;5094808;28;20376;-58
2023/10/23 02:26:22;;;;;;;;;;;22.60;55.20;;;;;;5094788;28;20372;-58
2023/10/23 02:28:49;;;;;;;;;;;22.60;55.20;;;;;;5095086;28;19928;-58
2023/10/23 02:31:18;;;;;;;;;;;22.60;55.20;;;;;;5094753;28;20422;-60
2023/10/23 02:33:45;;;;;;;;;;;22.60;55.20;;;;;;5095013;28;19927;-58
2023/10/23 02:36:11;;;;;;;;;;;22.60;55.20;;;;;;5094941;28;20432;-58
2023/10/23 02:38:38;;;;;;;;;;;22.60;55.30;;;;;;5094987;28;20019;-58
2023/10/23 02:41:05;;;;;;;;;;;22.60;55.30;;;;;;5095067;28;20356;-58
2023/10/23 02:43:32;;;;;;;;;;;22.60;55.30;;;;;;5094502;28;19924;-58
2023/10/23 02:46:00;;;;;;;;;;;22.60;55.30;;;;;;5094889;28;19981;-58
2023/10/23 02:48:27;;;;;;;;;;;22.60;55.40;;;;;;5094116;28;19967;-58
2023/10/23 02:50:54;;;;;;;;;;;22.60;55.40;;;;;;5094522;28;20376;-58
2023/10/23 02:53:21;;;;;;;;;;;22.50;55.30;;;;;;5094307;28;19971;-58
2023/10/23 02:55:49;;;;;;;;;;;22.50;55.40;;;;;;5094483;28;20299;-58
2023/10/23 02:58:16;;;;;;;;;;;22.50;55.40;;;;;;5094307;28;19928;-58
2023/10/23 03:00:44;;;;;;;;;;;22.60;55.40;;;;;;5094351;28;20442;-58
2023/10/23 03:03:11;;;;;;;;;;;22.50;55.40;;;;;;5094599;28;19931;-57
2023/10/23 03:05:39;;;;;;;;;;;22.50;55.40;;;;;;5094299;28;19924;-58
2023/10/23 03:08:06;;;;;;;;;;;22.60;55.50;;;;;;5093354;28;19924;-58
2023/10/23 03:10:33;;;;;;;;;;;22.60;55.40;;;;;;5094096;28;19946;-58
2023/10/23 03:13:00;;;;;;;;;;;22.60;55.30;;;;;;5094287;28;19989;-58
2023/10/23 03:15:27;;;;;;;;;;;22.60;55.30;;;;;;5094098;28;19924;-58
2023/10/23 03:17:54;;;;;;;;;;;22.60;55.30;;;;;;5094102;28;19932;-58
2023/10/23 03:20:21;;;;;;;;;;;22.60;55.30;;;;;;5094332;28;19966;-58
2023/10/23 03:22:48;;;;;;;;;;;22.60;55.30;;;;;;5094247;28;19978;-58
2023/10/23 03:25:15;;;;;;;;;;;22.60;55.30;;;;;;5094143;28;20014;-58
2023/10/23 03:27:42;;;;;;;;;;;22.60;55.20;;;;;;5093738;28;20384;-57
2023/10/23 03:30:09;;;;;;;;;;;22.60;55.20;;;;;;5093868;28;19924;-63
2023/10/23 03:32:36;;;;;;;;;;;22.60;55.20;;;;;;5094024;28;19975;-57
2023/10/23 03:35:03;;;;;;;;;;;22.60;55.20;;;;;;5094108;28;19993;-58
2023/10/23 03:37:30;;;;;;;;;;;22.60;55.30;;;;;;5093593;28;19924;-59
2023/10/23 03:39:57;;;;;;;;;;;22.60;55.20;;;;;;5092620;28;20420;-65
2023/10/23 03:42:24;;;;;;;;;;;22.60;55.20;;;;;;5093974;28;19925;-60
2023/10/23 03:44:51;;;;;;;;;;;22.50;55.20;;;;;;5093728;28;19970;-62
2023/10/23 03:47:18;;;;;;;;;;;22.50;55.20;;;;;;5093655;28;19924;-61
2023/10/23 03:49:47;;;;;;;;;;;22.50;55.20;;;;;;5093630;28;19959;-61
2023/10/23 03:52:14;;;;;;;;;;;22.50;55.20;;;;;;5093619;28;19971;-58
2023/10/23 03:54:41;;;;;;;;;;;22.50;55.20;;;;;;5093565;28;19924;-58
2023/10/23 03:57:08;;;;;;;;;;;22.50;55.20;;;;;;5092420;28;20430;-59
2023/10/23 03:59:35;;;;;;;;;;;22.50;55.20;;;;;;5094037;28;19935;-59
2023/10/23 04:02:02;;;;;;;;;;;22.50;55.20;;;;;;5097726;28;19970;-58
2023/10/23 04:04:29;;;;;;;;;;;22.50;55.30;;;;;;5097938;28;20394;-60
2023/10/23 04:06:58;;;;;;;;;;;22.50;55.20;;;;;;5097602;28;19924;-58
2023/10/23 04:09:29;;;;;;;;;;;22.50;55.20;;;;;;5097824;28;19924;-58
2023/10/23 04:11:56;;;;;;;;;;;22.50;55.30;;;;;;5096486;28;20288;-58
2023/10/23 04:14:23;;;;;;;;;;;22.50;55.30;;;;;;5097364;28;19924;-58
2023/10/23 04:16:50;;;;;;;;;;;22.50;55.30;;;;;;5097367;28;19963;-58
2023/10/23 04:19:17;;;;;;;;;;;22.50;55.30;;;;;;5097682;28;19924;-58
2023/10/23 04:21:44;;;;;;;;;;;22.40;55.30;;;;;;5097711;28;19924;-58
2023/10/23 04:24:11;;;;;;;;;;;22.50;55.30;;;;;;5097607;28;19928;-58
2023/10/23 04:26:38;;;;;;;;;;;22.40;55.30;;;;;;5097286;28;19924;-58
2023/10/23 04:29:05;;;;;;;;;;;22.50;55.30;;;;;;5097418;28;20299;-58
2023/10/23 04:31:32;;;;;;;;;;;22.50;55.30;;;;;;5097306;28;19931;-58
2023/10/23 04:33:59;;;;;;;;;;;22.50;55.30;;;;;;5097613;28;19924;-58
2023/10/23 04:36:26;;;;;;;;;;;22.50;55.30;;;;;;5097069;28;19970;-58
2023/10/23 04:38:53;;;;;;;;;;;22.50;55.20;;;;;;5097307;28;20014;-58
2023/10/23 04:41:20;;;;;;;;;;;22.50;54.90;;;;;;5096988;28;20014;-58
2023/10/23 04:43:47;;;;;;;;;;;22.50;54.80;;;;;;5096903;28;19924;-58
2023/10/23 04:46:14;;;;;;;;;;;22.50;54.60;;;;;;5097262;28;19924;-58
2023/10/23 04:48:41;;;;;;;;;;;22.50;54.40;;;;;;5097036;28;19928;-58
2023/10/23 04:51:08;;;;;;;;;;;22.50;54.20;;;;;;5097100;28;19924;-58
2023/10/23 04:53:35;;;;;;;;;;;22.60;54.10;;;;;;5096764;28;19950;-58
2023/10/23 04:56:04;;;;;;;;;;;22.60;53.90;;;;;;5096720;28;19924;-57
2023/10/23 04:58:34;;;;;;;;;;;22.60;53.80;;;;;;5096544;28;20007;-58
2023/10/23 05:01:01;;;;;;;;;;;22.60;53.80;;;;;;5096671;28;19935;-58
2023/10/23 05:03:29;;;;;;;;;;;22.50;54.30;;;;;;5096500;28;20022;-58
2023/10/23 05:05:56;;;;;;;;;;;22.50;53.70;;;;;;5096696;28;19928;-58
2023/10/23 05:08:23;;;;;;;;;;;22.50;53.70;;;;;;5096394;28;19975;-58
2023/10/23 05:10:50;;;;;;;;;;;22.50;53.70;;;;;;5096701;28;19924;-58
2023/10/23 05:13:17;;;;;;;;;;;22.50;53.70;;;;;;5096144;28;19924;-57
2023/10/23 05:15:44;;;;;;;;;;;22.50;53.70;;;;;;5096518;28;19924;-58
2023/10/23 05:18:12;;;;;;;;;;;22.40;53.60;;;;;;5096204;28;19928;-58
2023/10/23 05:20:39;;;;;;;;;;;22.40;53.60;;;;;;5096520;28;19947;-58
2023/10/23 05:23:06;;;;;;;;;;;22.40;53.50;;;;;;5096329;28;20381;-58
2023/10/23 05:25:34;;;;;;;;;;;22.40;53.50;;;;;;5096511;28;19927;-58
2023/10/23 05:28:01;;;;;;;;;;;22.40;53.50;;;;;;5096462;28;19975;-57
2023/10/23 05:30:29;;;;;;;;;;;22.40;53.50;;;;;;5095200;28;19970;-58
2023/10/23 05:32:56;;;;;;;;;;;22.40;53.50;;;;;;5096280;28;20206;-58
2023/10/23 05:35:24;;;;;;;;;;;22.40;53.40;;;;;;5095873;28;19924;-58
2023/10/23 05:37:50;;;;;;;;;;;22.40;53.40;;;;;;5094918;28;19977;-58
2023/10/23 05:40:17;;;;;;;;;;;22.40;53.30;;;;;;5096220;28;19969;-57
2023/10/23 05:42:44;;;;;;;;;;;22.40;53.30;;;;;;5096172;28;20299;-57
2023/10/23 05:45:11;;;;;;;;;;;22.40;53.10;;;;;;5095878;28;19958;-57
2023/10/23 05:47:38;;;;;;;;;;;22.40;53.10;;;;;;5095540;28;19985;-58
2023/10/23 05:50:06;;;;;;;;;;;22.40;53.00;;;;;;5096292;28;19928;-58
2023/10/23 05:52:33;;;;;;;;;;;22.50;53.00;;;;;;5095691;28;19960;-57
2023/10/23 05:55:04;;;;;;;;;;;22.50;52.90;;;;;;5095572;28;20459;-58
2023/10/23 05:57:31;;;;;;;;;;;22.50;52.70;;;;;;5095820;28;20292;-57
2023/10/23 05:59:59;;;;;;;;;;;22.50;52.70;;;;;;5095515;28;19924;-58
2023/10/23 06:02:26;;;;;;;;;;;22.50;52.50;;;;;;5095351;28;19924;-57
2023/10/23 06:04:53;;;;;;;;;;;22.60;52.40;;;;;;5095344;28;19930;-58
2023/10/23 06:07:20;;;;;;;;;;;22.60;52.30;;;;;;5095432;28;19963;-57
2023/10/23 06:09:47;;;;;;;;;;;22.60;52.20;;;;;;5093979;28;19924;-57
2023/10/23 06:12:14;;;;;;;;;;;22.60;52.10;;;;;;5095219;28;19924;-57
2023/10/23 06:14:41;;;;;;;;;;;22.60;52.10;;;;;;5095218;28;20419;-58
2023/10/23 06:17:08;;;;;;;;;;;22.70;52.10;;;;;;5094921;28;20019;-57
2023/10/23 06:19:36;;;;;;;;;;;22.70;52.00;;;;;;5095369;28;19967;-57
2023/10/23 06:22:03;;;;;;;;;;;22.70;52.00;;;;;;5094718;28;19930;-57
2023/10/23 06:24:30;;;;;;;;;;;22.70;51.90;;;;;;5095063;28;20348;-57
2023/10/23 06:26:57;;;;;;;;;;;22.70;51.80;;;;;;5095070;28;19946;-58
2023/10/23 06:29:25;;;;;;;;;;;22.70;51.70;;;;;;5095215;28;19924;-57
2023/10/23 06:31:54;;;;;;;;;;;22.70;51.70;;;;;;5095027;28;20407;-57
2023/10/23 06:34:21;;;;;;;;;;;22.70;51.60;;;;;;5094693;28;20402;-57
2023/10/23 06:36:48;;;;;;;;;;;22.80;51.60;;;;;;5094874;28;19924;-57
2023/10/23 06:39:16;;;;;;;;;;;22.80;51.50;;;;;;5093772;28;19924;-57
2023/10/23 06:41:43;;;;;;;;;;;22.80;51.50;;;;;;5094804;28;19924;-57
2023/10/23 06:44:10;;;;;;;;;;;22.80;51.40;;;;;;5094963;28;19924;-58
2023/10/23 06:46:37;;;;;;;;;;;22.80;51.40;;;;;;5094970;28;19954;-57
2023/10/23 06:49:04;;;;;;;;;;;22.80;51.40;;;;;;5094496;28;19977;-57
2023/10/23 06:51:31;;;;;;;;;;;22.90;51.30;;;;;;5094890;28;19924;-57
2023/10/23 06:53:58;;;;;;;;;;;22.90;51.30;;;;;;5094255;28;19969;-57
2023/10/23 06:56:25;;;;;;;;;;;22.90;51.20;;;;;;5094758;28;19924;-57
2023/10/23 06:58:52;;;;;;;;;;;22.90;51.20;;;;;;5094600;28;20022;-57
2023/10/23 07:01:19;;;;;;;;;;;22.90;51.20;;;;;;5094113;28;19924;-58
2023/10/23 07:04:03;;;;;;;;;;;22.90;51.30;;;;;;5094642;28;20253;-58
2023/10/23 07:06:30;;;;;;;;;;;22.90;51.30;;;;;;5094078;28;19927;-57
2023/10/23 07:08:58;;;;;;;;;;;23.00;51.40;;;;;;5094010;28;19976;-57
2023/10/23 07:11:25;;;;;;;;;;;22.90;51.40;;;;;;5094148;28;20022;-57
2023/10/23 07:13:52;;;;;;;;;;;23.00;51.50;;;;;;5094193;28;19980;-57
2023/10/23 07:16:19;;;;;;;;;;;23.00;51.50;;;;;;5094122;28;20318;-57
2023/10/23 07:18:47;;;;;;;;;;;23.00;51.50;;;;;;5092863;28;19932;-57
2023/10/23 07:21:14;;;;;;;;;;;23.00;51.50;;;;;;5093930;28;19931;-57
2023/10/23 07:23:42;;;;;;;;;;;23.00;51.50;;;;;;5092708;28;20380;-57
2023/10/23 07:26:14;;;;;;;;;;;23.10;51.50;;;;;;5094006;28;19946;-58
2023/10/23 07:28:41;;;;;;;;;;;23.10;51.50;;;;;;5093805;28;19924;-57
2023/10/23 07:31:09;;;;;;;;;;;23.10;51.50;;;;;;5093948;28;19931;-58
2023/10/23 07:33:36;;;;;;;;;;;23.20;51.50;;;;;;5093368;28;19924;-57
2023/10/23 07:36:04;;;;;;;;;;;23.20;51.40;;;;;;5092936;28;19969;-58
2023/10/23 07:38:31;;;;;;;;;;;23.30;51.40;;;;;;5094078;28;19969;-60
2023/10/23 07:40:58;;;;;;;;;;;23.30;51.40;;;;;;5094187;28;19931;-60
2023/10/23 07:43:25;;;;;;;;;;;23.30;51.30;;;;;;5093565;28;20376;-58
2023/10/23 07:45:53;;;;;;;;;;;23.40;51.30;;;;;;5093966;28;19970;-60
2023/10/23 07:48:34;;;;;;;;;;;23.40;51.20;;;;;;5093949;28;20360;-59
2023/10/23 07:51:03;;;;;;;;;;;23.40;51.20;;;;;;5093828;28;19954;-58
2023/10/23 07:53:32;;;;;;;;;;;23.40;51.10;;;;;;5093556;28;19969;-57
2023/10/23 07:55:59;;;;;;;;;;;23.50;51.10;;;;;;5094071;28;20037;-57
2023/10/23 07:58:26;;;;;;;;;;;23.50;51.10;;;;;;5093520;28;19930;-57
2023/10/23 08:01:04;;;;;;;;;;;23.50;51.00;;;;;;5094000;28;19935;-58
2023/10/23 08:03:33;;;;;;;;;;;23.60;51.00;;;;;;5092168;28;19924;-58
2023/10/23 08:06:03;;;;;;;;;;;23.60;51.00;;;;;;5093396;28;20019;-57
2023/10/23 08:08:37;;;;;;;;;;;23.60;50.90;;;;;;5093803;28;19924;-58
2023/10/23 08:11:05;;;;;;;;;;;23.60;50.90;;;;;;5093451;28;19924;-58
2023/10/23 08:13:32;;;;;;;;;;;23.60;50.90;;;;;;5093460;28;20334;-58
2023/10/23 08:15:59;;;;;;;;;;;23.70;50.90;;;;;;5093555;28;20354;-58
2023/10/23 08:18:27;;;;;;;;;;;23.70;50.80;;;;;;5093606;28;20261;-61
2023/10/23 08:21:12;;;;;;;;;;;23.70;50.80;;;;;;5093683;28;19924;-57
2023/10/23 08:23:40;;;;;;;;;;;23.70;50.80;;;;;;5092287;28;19928;-58
2023/10/23 08:26:07;;;;;;;;;;;23.70;50.80;;;;;;5093695;28;19954;-57
2023/10/23 08:28:34;;;;;;;;;;;23.70;50.80;;;;;;5093707;28;19984;-57
2023/10/23 08:31:21;;;;;;;;;;;23.70;50.80;;;;;;5093825;28;19946;-57
2023/10/23 08:34:04;;;;;;;;;;;23.70;50.80;;;;;;5093109;28;19931;-57
2023/10/23 08:36:32;;;;;;;;;;;23.80;50.90;;;;;;5093570;28;19924;-57
2023/10/23 08:39:00;;;;;;;;;;;23.80;50.90;;;;;;5093296;28;19974;-57
2023/10/23 08:41:27;;;;;;;;;;;23.80;50.90;;;;;;5093211;28;19928;-57
2023/10/23 08:43:55;;;;;;;;;;;23.80;50.90;;;;;;5092973;28;20027;-57
2023/10/23 08:46:25;;;;;;;;;;;23.80;50.80;;;;;;5094892;28;19934;-58
2023/10/23 08:48:52;;;;;;;;;;;23.80;50.80;;;;;;5096837;28;20014;-57
2023/10/23 08:51:19;;;;;;;;;;;23.80;50.90;;;;;;5097391;28;19931;-58
2023/10/23 08:53:54;;;;;;;;;;;23.90;50.90;;;;;;5096524;28;20407;-57
2023/10/23 08:56:39;;;;;;;;;;;23.90;50.90;;;;;;5097074;28;19973;-57
2023/10/23 08:59:08;;;;;;;;;;;23.90;50.90;;;;;;5096893;28;20392;-58
2023/10/23 09:01:36;;;;;;;;;;;23.90;50.80;;;;;;5096801;28;19928;-58
2023/10/23 09:04:05;;;;;;;;;;;23.90;50.70;;;;;;5096805;28;19928;-58
2023/10/23 09:06:35;;;;;;;;;;;23.90;50.70;;;;;;5096510;28;19935;-57
2023/10/23 09:09:06;;;;;;;;;;;23.90;50.60;;;;;;5095234;28;20411;-58
2023/10/23 09:11:44;;;;;;;;;;;24.00;50.60;;;;;;5096609;28;19928;-58
2023/10/23 09:14:26;;;;;;;;;;;24.00;50.50;;;;;;5096642;28;19924;-58
2023/10/23 09:16:54;;;;;;;;;;;24.00;50.50;;;;;;5096455;28;19935;-58
2023/10/23 09:19:34;;;;;;;;;;;24.00;50.40;;;;;;5096252;28;20011;-58
2023/10/23 09:22:03;;;;;;;;;;;24.00;50.40;;;;;;5096825;28;19931;-57
2023/10/23 09:24:31;;;;;;;;;;;24.10;50.50;;;;;;5096138;28;20284;-58
2023/10/23 09:26:58;;;;;;;;;;;24.10;50.40;;;;;;5096388;28;19924;-57
2023/10/23 09:29:26;;;;;;;;;;;24.10;50.40;;;;;;5096021;28;19924;-58
2023/10/23 09:31:54;;;;;;;;;;;24.10;50.30;;;;;;5095933;28;19939;-58
2023/10/23 09:34:21;;;;;;;;;;;24.10;50.30;;;;;;5096278;28;19924;-58
2023/10/23 09:36:52;;;;;;;;;;;24.10;50.30;;;;;;5096396;28;20296;-58
2023/10/23 09:39:22;;;;;;;;;;;24.10;50.20;;;;;;5096362;28;19970;-57
2023/10/23 09:41:50;;;;;;;;;;;24.10;50.20;;;;;;5096159;28;19963;-57
2023/10/23 09:44:17;;;;;;;;;;;24.20;50.20;;;;;;5094857;28;20302;-58
2023/10/23 09:46:45;;;;;;;;;;;24.20;50.10;;;;;;5096180;28;20292;-58
2023/10/23 09:49:12;;;;;;;;;;;24.20;50.10;;;;;;5096043;28;20296;-58
2023/10/23 09:51:40;;;;;;;;;;;24.20;50.10;;;;;;5095529;28;20380;-58
2023/10/23 09:54:12;;;;;;;;;;;24.20;50.10;;;;;;5095480;28;20012;-57
2023/10/23 09:56:44;;;;;;;;;;;24.20;50.00;;;;;;5095858;28;19928;-58
2023/10/23 09:59:13;;;;;;;;;;;24.30;50.00;;;;;;5095172;28;20320;-58
2023/10/23 10:01:41;;;;;;;;;;;24.30;50.00;;;;;;5095441;28;19924;-58
2023/10/23 10:04:28;;;;;;;;;;;24.30;49.90;;;;;;5095699;28;19930;-58
2023/10/23 10:07:00;;;;;;;;;;;24.30;49.90;;;;;;5095577;28;19963;-57
2023/10/23 10:09:27;;;;;;;;;;;24.40;49.80;;;;;;5095619;28;19924;-58
2023/10/23 10:11:55;;;;;;;;;;;24.40;49.70;;;;;;5095580;28;19982;-58
2023/10/23 10:14:24;;;;;;;;;;;24.40;49.50;;;;;;5095339;28;19947;-58
2023/10/23 10:16:52;;;;;;;;;;;24.50;49.40;;;;;;5095314;28;20300;-58
2023/10/23 10:19:19;;;;;;;;;;;24.50;49.20;;;;;;5095161;28;20365;-58
2023/10/23 10:22:04;;;;;;;;;;;24.60;49.10;;;;;;5095282;28;19924;-58
2023/10/23 10:24:33;;;;;;;;;;;24.60;49.10;;;;;;5095321;28;20412;-58
2023/10/23 10:27:03;;;;;;;;;;;24.60;49.00;;;;;;5094155;28;19924;-58
2023/10/23 10:29:31;;;;;;;;;;;24.70;49.00;;;;;;5093993;28;19992;-58
2023/10/23 10:32:05;;;;;;;;;;;24.70;49.00;;;;;;5093681;28;20364;-57
2023/10/23 10:34:51;;;;;;;;;;;24.80;48.90;;;;;;5094719;28;19924;-58
2023/10/23 10:37:24;;;;;;;;;;;24.80;48.80;;;;;;5095096;28;19970;-58
2023/10/23 10:40:03;;;;;;;;;;;24.80;48.70;;;;;;5094755;28;20456;-58
2023/10/23 10:42:34;;;;;;;;;;;24.90;48.60;;;;;;5094857;28;19982;-57
2023/10/23 10:45:14;;;;;;;;;;;24.90;48.40;;;;;;5093947;28;19977;-58
2023/10/23 10:47:43;;;;;;;;;;;24.90;48.40;;;;;;5094694;28;19928;-58
2023/10/23 10:50:11;;;;;;;;;;;24.90;48.30;;;;;;5094619;28;19924;-58
2023/10/23 10:52:39;;;;;;;;;;;24.90;48.20;;;;;;5095192;28;19954;-58
2023/10/23 10:55:07;;;;;;;;;;;25.00;48.20;;;;;;5094409;28;20330;-58
2023/10/23 10:57:36;;;;;;;;;;;25.00;48.20;;;;;;5093355;28;20333;-58
2023/10/23 11:00:04;;;;;;;;;;;25.00;48.30;;;;;;5094755;28;19924;-58
2023/10/23 11:02:30;;;;;;;;;;;25.00;48.30;;;;;;5094676;28;20261;-58
2023/10/23 11:04:57;;;;;;;;;;;24.90;48.20;;;;;;5094426;28;19924;-57
2023/10/23 11:07:25;;;;;;;;;;;24.90;48.20;;;;;;5094168;28;20403;-58
2023/10/23 11:09:53;;;;;;;;;;;24.90;48.30;;;;;;5094349;28;19928;-57
2023/10/23 11:12:21;;;;;;;;;;;24.90;48.40;;;;;;5094056;28;20301;-57
2023/10/23 11:14:48;;;;;;;;;;;24.90;48.40;;;;;;5094394;28;19928;-58
2023/10/23 11:17:15;;;;;;;;;;;24.90;48.50;;;;;;5094032;28;20334;-57
2023/10/23 11:19:43;;;;;;;;;;;24.90;48.40;;;;;;5094064;28;19931;-58
2023/10/23 11:22:13;;;;;;;;;;;24.90;48.40;;;;;;5092902;28;20012;-57
2023/10/23 11:24:41;;;;;;;;;;;24.90;48.40;;;;;;5093213;28;19931;-58
2023/10/23 11:27:08;;;;;;;;;;;24.90;48.40;;;;;;5094370;28;19924;-57
2023/10/23 11:29:39;;;;;;;;;;;24.90;48.30;;;;;;5094154;28;20010;-57
2023/10/23 11:32:07;;;;;;;;;;;24.90;48.40;;;;;;5093860;28;19931;-58
2023/10/23 11:34:37;;;;;;;;;;;24.90;48.30;;;;;;5093950;28;20446;-57
2023/10/23 11:37:04;;;;;;;;;;;24.90;48.20;;;;;;5093838;28;20372;-57
2023/10/23 11:39:32;;;;;;;;;;;24.90;48.20;;;;;;5093649;28;19932;-57
2023/10/23 11:41:59;;;;;;;;;;;24.90;48.00;;;;;;5093991;28;19928;-57
2023/10/23 11:44:27;;;;;;;;;;;25.00;48.30;;;;;;5093921;28;19983;-57
2023/10/23 11:46:54;;;;;;;;;;;25.00;48.00;;;;;;5094029;28;19978;-57
2023/10/23 11:49:24;;;;;;;;;;;25.00;48.00;;;;;;5092336;28;19924;-57
2023/10/23 11:51:52;;;;;;;;;;;25.00;48.00;;;;;;5093910;28;19924;-59
2023/10/23 11:54:19;;;;;;;;;;;25.00;47.90;;;;;;5093706;28;19928;-59
2023/10/23 11:56:46;;;;;;;;;;;25.00;47.90;;;;;;5093765;28;19979;-59
2023/10/23 11:59:17;;;;;;;;;;;25.00;47.80;;;;;;5093526;28;19977;-59
2023/10/23 12:01:44;;;;;;;;;;;25.00;47.70;;;;;;5093380;28;19975;-59
2023/10/23 12:04:12;;;;;;;;;;;25.10;47.70;;;;;;5093892;28;19969;-59
2023/10/23 12:06:39;;;;;;;;;;;25.10;47.60;;;;;;5092375;28;19954;-59
2023/10/23 12:09:07;;;;;;;;;;;25.10;47.50;;;;;;5093752;28;19924;-62
2023/10/23 12:11:34;;;;;;;;;;;25.10;47.50;;;;;;5093886;28;19982;-59
2023/10/23 12:14:01;;;;;;;;;;;25.10;47.50;;;;;;5093336;28;20422;-59
2023/10/23 12:16:30;;;;;;;;;;;25.20;47.60;;;;;;5093051;28;20330;-65
2023/10/23 12:18:57;;;;;;;;;;;25.10;47.60;;;;;;5092872;28;19967;-64
2023/10/23 12:21:24;;;;;;;;;;;25.10;47.60;;;;;;5095384;28;20396;-59
2023/10/23 12:23:52;;;;;;;;;;;25.10;47.60;;;;;;5097135;28;19924;-59
2023/10/23 12:26:19;;;;;;;;;;;25.10;47.60;;;;;;5097709;28;19971;-58
2023/10/23 12:28:46;;;;;;;;;;;25.10;47.60;;;;;;5097303;28;19969;-58
2023/10/23 12:31:13;;;;;;;;;;;25.20;47.60;;;;;;5097468;28;20015;-58
2023/10/23 12:33:50;;;;;;;;;;;25.10;48.00;;;;;;5095759;28;20365;-59
2023/10/23 12:36:17;;;;;;;;;;;25.10;47.50;;;;;;5097155;28;19924;-58
2023/10/23 12:38:44;;;;;;;;;;;25.20;47.50;;;;;;5097063;28;19924;-58
2023/10/23 12:41:11;;;;;;;;;;;25.20;47.50;;;;;;5097380;28;19974;-58
2023/10/23 12:43:38;;;;;;;;;;;25.20;47.40;;;;;;5096969;28;19924;-59
2023/10/23 12:46:05;;;;;;;;;;;25.20;47.40;;;;;;5096972;28;19924;-59
2023/10/23 12:48:32;;;;;;;;;;;25.20;47.40;;;;;;5097446;28;19947;-59
2023/10/23 12:50:59;;;;;;;;;;;25.30;47.50;;;;;;5096847;28;20010;-59
2023/10/23 12:53:26;;;;;;;;;;;25.30;47.40;;;;;;5096710;28;19974;-59
2023/10/23 12:55:53;;;;;;;;;;;25.30;47.40;;;;;;5096631;28;19977;-59
2023/10/23 12:58:20;;;;;;;;;;;25.30;47.40;;;;;;5096572;28;20353;-58
2023/10/23 13:00:47;;;;;;;;;;;25.30;47.30;;;;;;5096743;28;19924;-59
2023/10/23 13:03:14;;;;;;;;;;;25.30;47.30;;;;;;5095286;28;19931;-59
2023/10/23 13:05:41;;;;;;;;;;;25.30;47.30;;;;;;5096377;28;19924;-59
2023/10/23 13:08:08;;;;;;;;;;;25.30;47.30;;;;;;5096506;28;20019;-59
2023/10/23 13:10:35;;;;;;;;;;;25.30;47.30;;;;;;5096942;28;19978;-59
2023/10/23 13:13:02;;;;;;;;;;;25.30;47.40;;;;;;5096714;28;20292;-59
2023/10/23 13:15:29;;;;;;;;;;;25.20;47.80;;;;;;5096281;28;19930;-59
2023/10/23 13:17:58;;;;;;;;;;;25.30;47.40;;;;;;5095248;28;19932;-59
2023/10/23 13:20:25;;;;;;;;;;;25.20;47.40;;;;;;5096600;28;20296;-58
2023/10/23 13:23:12;;;;;;;;;;;25.20;47.40;;;;;;5096536;28;19966;-59
2023/10/23 13:25:40;;;;;;;;;;;25.20;47.60;;;;;;5095937;28;19961;-59
2023/10/23 13:28:07;;;;;;;;;;;25.20;47.50;;;;;;5096429;28;19931;-58
2023/10/23 13:30:35;;;;;;;;;;;25.20;47.60;;;;;;5096124;28;19924;-59
2023/10/23 13:33:03;;;;;;;;;;;25.20;47.50;;;;;;5095071;28;19924;-59
2023/10/23 13:35:30;;;;;;;;;;;25.20;47.60;;;;;;5095883;28;19924;-59
2023/10/23 13:37:57;;;;;;;;;;;25.20;47.50;;;;;;5095918;28;20388;-59
2023/10/23 13:40:24;;;;;;;;;;;25.20;47.60;;;;;;5094819;28;20023;-59
2023/10/23 13:42:51;;;;;;;;;;;25.20;47.60;;;;;;5095790;28;20319;-59
2023/10/23 13:45:18;;;;;;;;;;;25.20;47.60;;;;;;5095856;28;19924;-59
2023/10/23 13:47:45;;;;;;;;;;;25.20;47.60;;;;;;5096012;28;19960;-59
2023/10/23 13:50:12;;;;;;;;;;;25.20;47.60;;;;;;5096066;28;19924;-58
2023/10/23 13:52:39;;;;;;;;;;;25.20;47.60;;;;;;5095612;28;20376;-59
2023/10/23 13:55:11;;;;;;;;;;;25.20;47.60;;;;;;5095942;28;20370;-59
2023/10/23 13:57:38;;;;;;;;;;;25.20;47.60;;;;;;5095369;28;19977;-59
2023/10/23 14:00:06;;;;;;;;;;;25.20;47.70;;;;;;5095638;28;20364;-59
2023/10/23 14:02:33;;;;;;;;;;;25.20;47.70;;;;;;5095727;28;19959;-58
2023/10/23 14:05:00;;;;;;;;;;;25.10;47.70;;;;;;5095743;28;20370;-59
2023/10/23 14:07:27;;;;;;;;;;;25.10;47.60;;;;;;5095361;28;19932;-59
2023/10/23 14:09:54;;;;;;;;;;;25.10;47.70;;;;;;5094082;28;19967;-59
2023/10/23 14:12:21;;;;;;;;;;;25.10;47.70;;;;;;5095238;28;19936;-59
2023/10/23 14:14:48;;;;;;;;;;;25.10;47.70;;;;;;5095232;28;20376;-59
2023/10/23 14:17:15;;;;;;;;;;;25.10;47.80;;;;;;5095062;28;19924;-59
2023/10/23 14:19:42;;;;;;;;;;;25.10;47.90;;;;;;5095408;28;19978;-59
2023/10/23 14:22:15;;;;;;;;;;;25.10;47.90;;;;;;5095029;28;19931;-59